Hamburg Finkenwerder Airport

Current Flights

Departures
Number Departure To Airline
Arrivals
Number Arrival From Airline
Info
Name: Hamburg Finkenwerder Airport
Identifier:  XFW/EDHI
Local Time:  25. May 06:51
City
Hamburg
  Germany

Flights per Day
2 flights
Distance: 1,435km (892mi)
Punctuality
93% (0 flights per day delayed)
Delay Average: 105 minutes
Current Weather
  7kt (12km/h / 8mph) from 270°
  9km (6 mi.)
 METAR EDHI 250420Z AUTO 27007KT 9999 // FEW013/// OVC031/// 11/09 Q1014

Current Delays

Departures
N/A
Arrivals
N/A

Destinations

Top Destinations
Airport Flights
per week
Seats
per week
  Toulouse (TLS) 14 413 2 59
  Abu Dhabi (AUH) <1 - 0 0
  Dubai (DWC) <1 - 0 0

Airlines & Planes

Top Airlines
Airline Flights
per Day
Seats
per Day
  Hi Fly 1 -
  Titan Airways <1 64
Airbus <1 -
  Vietnam Airlines <1 -
  easyJet <1 -
Top Plane Types
Manufacturer Model Flights Seats
Airbus A319 1.6/day - 0
Airbus A320 0.4/day 64/day 64.8
Airbus A321 0.2/day - 0
Bombardier Dash 8-400 0.1/day 5/day 5.066666666666666
Embraer E190 0.0/day 3/day 3.3333333333333335